Kilmaurs, United Kingdom
Current Conditions -  °F | °C
As of 10:20 AM on Tuesday 27 Jan 2015 (Local Time) from EGPK Reporting Station
Rain Showers Rain Showers  
Wind Chill: 38°   Ceiling: 2000
Heat Index: 45°   Visibility: 4mi
Dew Point: 43°   Wind: 13mph
Humidity: 93%   Direction: 250°WSW
Pressure: 30.21"   Gusts: NA
Location:  55.64°N, 4.53°W
Report Text: EGPK 271020Z 25011KT 6000 -SHRA SCT010 BKN020 07/06 Q1023
Loading
Personal Weather Stations






























Interactive Weather Map New forecast layout! Learn more

10-Day Weather Forecast

Advertisements
Track Severe Weather on mobile